createdAt,value
2018-06-20T00:00:38.939Z,0
2018-06-20T00:01:38.973Z,0
2018-06-20T00:02:38.963Z,0
2018-06-20T00:03:38.941Z,0
2018-06-20T00:04:38.901Z,0
2018-06-20T00:05:38.986Z,0
2018-06-20T00:06:38.941Z,0
2018-06-20T00:07:38.860Z,0
2018-06-20T00:08:39.003Z,0
2018-06-20T00:09:38.865Z,0
2018-06-20T00:10:38.911Z,0
2018-06-20T00:11:38.774Z,0
2018-06-20T00:12:38.833Z,0
2018-06-20T00:13:38.737Z,0
2018-06-20T00:14:38.735Z,0
2018-06-20T00:15:38.734Z,0
2018-06-20T00:16:38.836Z,0
2018-06-20T00:17:38.741Z,0
2018-06-20T00:18:38.801Z,0
2018-06-20T00:19:38.841Z,0
2018-06-20T00:20:38.744Z,0
2018-06-20T00:21:38.886Z,0
2018-06-20T00:22:38.886Z,0
2018-06-20T00:23:38.958Z,0
2018-06-20T00:24:38.889Z,0
2018-06-20T00:25:38.887Z,0
2018-06-20T00:26:39.059Z,0
2018-06-20T00:27:38.893Z,0
2018-06-20T00:28:38.964Z,0
2018-06-20T00:29:38.889Z,0
2018-06-20T00:30:38.971Z,0
2018-06-20T00:31:38.901Z,0
2018-06-20T00:32:38.901Z,0
2018-06-20T00:33:38.965Z,0
2018-06-20T00:34:38.965Z,0
2018-06-20T00:35:38.892Z,0
2018-06-20T00:36:38.892Z,0
2018-06-20T00:37:38.895Z,0
2018-06-20T00:38:38.970Z,0
2018-06-20T00:39:38.895Z,0
2018-06-20T00:40:38.914Z,0
2018-06-20T00:41:39.026Z,0
2018-06-20T00:42:38.942Z,0
2018-06-20T00:43:38.894Z,0
2018-06-20T00:44:39.004Z,0
2018-06-20T00:45:38.942Z,0
2018-06-20T00:46:38.910Z,0
2018-06-20T00:47:39.006Z,0
2018-06-20T00:48:38.991Z,0
2018-06-20T00:49:38.993Z,0
2018-06-20T00:50:38.909Z,0
2018-06-20T00:51:38.904Z,0
2018-06-20T00:52:38.967Z,0
2018-06-20T00:53:38.910Z,0
2018-06-20T00:54:38.901Z,0
2018-06-20T00:55:38.992Z,0
2018-06-20T00:56:38.900Z,0
2018-06-20T00:57:38.898Z,0
2018-06-20T00:58:38.974Z,0
2018-06-20T00:59:38.905Z,0
2018-06-20T01:00:38.972Z,0
2018-06-20T01:01:38.905Z,0
2018-06-20T01:02:38.909Z,0
2018-06-20T01:03:38.976Z,0
2018-06-20T01:04:38.966Z,0
2018-06-20T01:05:38.907Z,0
2018-06-20T01:06:38.978Z,0
2018-06-20T01:07:38.910Z,0
2018-06-20T01:08:38.978Z,0
2018-06-20T01:09:38.912Z,0
2018-06-20T01:10:38.979Z,0
2018-06-20T01:11:39.027Z,0
2018-06-20T01:12:38.884Z,0
2018-06-20T01:13:38.921Z,0
2018-06-20T01:14:38.982Z,0
2018-06-20T01:15:38.966Z,0
2018-06-20T01:16:38.972Z,0
2018-06-20T01:17:38.892Z,0
2018-06-20T01:18:38.859Z,0
2018-06-20T01:19:38.979Z,0
2018-06-20T01:20:38.895Z,0
2018-06-20T01:21:39.054Z,0
2018-06-20T01:22:38.915Z,0
2018-06-20T01:23:39.057Z,0
2018-06-20T01:24:38.996Z,0
2018-06-20T01:25:38.997Z,0
2018-06-20T01:26:39.056Z,0
2018-06-20T01:27:38.930Z,0
2018-06-20T01:28:38.974Z,0
2018-06-20T01:29:38.935Z,0
2018-06-20T01:30:39.009Z,0
2018-06-20T01:31:39.038Z,0
2018-06-20T01:32:38.975Z,0
2018-06-20T01:33:39.041Z,0
2018-06-20T01:34:39.042Z,0
2018-06-20T01:35:39.003Z,0
2018-06-20T01:36:39.044Z,0
2018-06-20T01:37:39.008Z,0
2018-06-20T01:38:39.040Z,0
2018-06-20T01:39:39.003Z,0
2018-06-20T01:40:39.044Z,0
2018-06-20T01:41:39.066Z,0
2018-06-20T01:42:39.010Z,0
2018-06-20T01:43:38.972Z,0
2018-06-20T01:44:39.043Z,0
2018-06-20T01:45:38.993Z,0
2018-06-20T01:46:39.030Z,0
2018-06-20T01:47:39.033Z,0
2018-06-20T01:48:38.952Z,0
2018-06-20T01:49:38.987Z,0
2018-06-20T01:50:38.987Z,0
2018-06-20T01:51:38.986Z,0
2018-06-20T01:52:38.978Z,0
2018-06-20T01:53:38.941Z,0
2018-06-20T01:54:39.053Z,0
2018-06-20T01:55:39.067Z,0
2018-06-20T01:56:39.022Z,0
2018-06-20T01:57:39.028Z,0
2018-06-20T01:58:38.922Z,0
2018-06-20T01:59:38.991Z,0
2018-06-20T02:00:38.998Z,0
2018-06-20T02:01:39.031Z,0
2018-06-20T02:02:38.959Z,0
2018-06-20T02:03:38.983Z,0
2018-06-20T02:04:38.993Z,0
2018-06-20T02:05:39.046Z,0
2018-06-20T02:06:39.055Z,0
2018-06-20T02:07:39.051Z,0
2018-06-20T02:08:39.056Z,0
2018-06-20T02:09:39.025Z,0
2018-06-20T02:10:38.942Z,0
2018-06-20T02:11:39.062Z,0
2018-06-20T02:12:39.007Z,0
2018-06-20T02:13:39.006Z,0
2018-06-20T02:14:38.994Z,0
2018-06-20T02:15:39.069Z,0
2018-06-20T02:16:38.992Z,0
2018-06-20T02:17:38.992Z,0
2018-06-20T02:18:39.048Z,0
2018-06-20T02:19:39.004Z,0
2018-06-20T02:20:39.012Z,0
2018-06-20T02:21:39.031Z,0
2018-06-20T02:22:39.071Z,0
2018-06-20T02:23:39.060Z,0
2018-06-20T02:24:39.056Z,0
2018-06-20T02:25:39.064Z,0
2018-06-20T02:26:38.961Z,0
2018-06-20T02:27:38.973Z,0
2018-06-20T02:28:38.966Z,0
2018-06-20T02:29:39.058Z,0
2018-06-20T02:30:39.022Z,0
2018-06-20T02:31:39.036Z,0
2018-06-20T02:32:39.038Z,0
2018-06-20T02:33:39.040Z,0
2018-06-20T02:34:39.041Z,0
2018-06-20T02:35:39.040Z,0
2018-06-20T02:36:39.020Z,0
2018-06-20T02:37:38.971Z,0
2018-06-20T02:38:39.076Z,0
2018-06-20T02:39:39.131Z,0
2018-06-20T02:40:39.015Z,0
2018-06-20T02:41:38.943Z,0
2018-06-20T02:42:39.055Z,0
2018-06-20T02:43:39.050Z,0
2018-06-20T02:44:39.023Z,0
2018-06-20T02:45:39.008Z,0
2018-06-20T02:46:39.051Z,0
2018-06-20T02:47:39.058Z,0
2018-06-20T02:48:39.057Z,0
2018-06-20T02:49:39.054Z,0
2018-06-20T02:50:38.984Z,0
2018-06-20T02:51:39.034Z,0
2018-06-20T02:52:38.979Z,0
2018-06-20T02:53:39.036Z,0
2018-06-20T02:54:39.164Z,0
2018-06-20T02:55:39.055Z,0
2018-06-20T02:56:39.115Z,0
2018-06-20T02:57:38.997Z,0
2018-06-20T02:58:39.023Z,0
2018-06-20T02:59:39.061Z,0
2018-06-20T03:00:39.099Z,0
2018-06-20T03:01:38.957Z,0
2018-06-20T03:02:38.957Z,0
2018-06-20T03:03:38.973Z,0
2018-06-20T03:04:39.058Z,0
2018-06-20T03:05:38.917Z,0
2018-06-20T03:06:39.045Z,0
2018-06-20T03:07:39.060Z,0
2018-06-20T03:08:39.042Z,0
2018-06-20T03:09:39.060Z,0
2018-06-20T03:10:38.967Z,0
2018-06-20T03:11:39.049Z,0
2018-06-20T03:12:38.988Z,0
2018-06-20T03:13:39.104Z,0
2018-06-20T03:14:39.007Z,0
2018-06-20T03:15:39.089Z,0
2018-06-20T03:16:39.008Z,0
2018-06-20T03:17:39.071Z,0
2018-06-20T03:18:39.035Z,0
2018-06-20T03:19:39.101Z,0
2018-06-20T03:20:39.071Z,0
2018-06-20T03:21:39.068Z,0
2018-06-20T03:22:39.032Z,0
2018-06-20T03:23:39.064Z,0
2018-06-20T03:24:38.980Z,0
2018-06-20T03:25:38.954Z,0
2018-06-20T03:26:39.086Z,0
2018-06-20T03:27:38.948Z,0
2018-06-20T03:28:39.071Z,0
2018-06-20T03:29:38.955Z,0
2018-06-20T03:30:38.955Z,0
2018-06-20T03:31:39.070Z,0
2018-06-20T03:32:39.099Z,0
2018-06-20T03:33:39.058Z,0
2018-06-20T03:34:39.112Z,0
2018-06-20T03:35:39.055Z,0
2018-06-20T03:36:39.043Z,0
2018-06-20T03:37:39.041Z,0
2018-06-20T03:38:39.103Z,0
2018-06-20T03:39:39.080Z,0
2018-06-20T03:40:39.113Z,0
2018-06-20T03:41:39.111Z,0
2018-06-20T03:42:39.062Z,0
2018-06-20T03:43:39.064Z,0
2018-06-20T03:44:39.075Z,0
2018-06-20T03:45:38.960Z,0
2018-06-20T03:46:38.961Z,0
2018-06-20T03:47:39.047Z,0
2018-06-20T03:48:38.995Z,0
2018-06-20T03:49:38.957Z,23
2018-06-20T03:50:39.044Z,15
2018-06-20T03:51:39.021Z,16
2018-06-20T03:52:39.091Z,19
2018-06-20T03:53:39.097Z,20
2018-06-20T03:54:39.028Z,21
2018-06-20T03:55:39.028Z,21
2018-06-20T03:56:39.128Z,22
2018-06-20T03:57:39.095Z,23
2018-06-20T03:58:39.031Z,24
2018-06-20T03:59:39.099Z,25
2018-06-20T04:00:39.100Z,25
2018-06-20T04:01:39.034Z,28
2018-06-20T04:02:38.997Z,28
2018-06-20T04:03:39.058Z,29
2018-06-20T04:04:39.099Z,30
2018-06-20T04:05:39.041Z,33
2018-06-20T04:06:39.010Z,33
2018-06-20T04:07:39.106Z,35
2018-06-20T04:08:39.145Z,34
2018-06-20T04:09:39.109Z,34
2018-06-20T04:10:39.121Z,35
2018-06-20T04:11:39.104Z,39
2018-06-20T04:12:39.052Z,39
2018-06-20T04:13:39.045Z,41
2018-06-20T04:14:39.047Z,41
2018-06-20T04:15:39.042Z,42
2018-06-20T04:16:39.040Z,42
2018-06-20T04:17:39.107Z,43
2018-06-20T04:18:39.114Z,45
2018-06-20T04:19:39.112Z,47
2018-06-20T04:20:39.174Z,49
2018-06-20T04:21:39.113Z,50
2018-06-20T04:22:39.073Z,52
2018-06-20T04:23:39.112Z,55
2018-06-20T04:24:39.031Z,58
2018-06-20T04:25:39.111Z,62
2018-06-20T04:26:39.020Z,67
2018-06-20T04:27:39.091Z,70
2018-06-20T04:28:39.024Z,73
2018-06-20T04:29:39.119Z,79
2018-06-20T04:30:39.082Z,88
2018-06-20T04:31:39.040Z,93
2018-06-20T04:32:39.095Z,99
2018-06-20T04:33:39.115Z,105
2018-06-20T04:34:39.114Z,109
2018-06-20T04:35:39.040Z,105
2018-06-20T04:36:39.046Z,105
2018-06-20T04:37:39.084Z,97
2018-06-20T04:38:39.156Z,89
2018-06-20T04:39:39.045Z,85
2018-06-20T04:40:39.100Z,77
2018-06-20T04:41:39.095Z,73
2018-06-20T04:42:39.059Z,71
2018-06-20T04:43:39.123Z,69
2018-06-20T04:44:39.155Z,70
2018-06-20T04:45:39.127Z,77
2018-06-20T04:46:39.129Z,79
2018-06-20T04:47:39.058Z,80
2018-06-20T04:48:39.128Z,83
2018-06-20T04:49:39.064Z,84
2018-06-20T04:50:39.064Z,85
2018-06-20T04:51:39.068Z,85
2018-06-20T04:52:39.154Z,84
2018-06-20T04:53:39.130Z,84
2018-06-20T04:54:39.130Z,85
2018-06-20T04:55:39.087Z,86
2018-06-20T04:56:39.071Z,87
2018-06-20T04:57:39.038Z,85
2018-06-20T04:58:39.164Z,89
2018-06-20T04:59:39.163Z,91
2018-06-20T05:00:39.177Z,94
2018-06-20T05:01:39.131Z,94
2018-06-20T05:02:39.053Z,93
2018-06-20T05:03:39.095Z,95
2018-06-20T05:04:39.000Z,92
2018-06-20T05:05:39.095Z,92
2018-06-20T05:06:38.996Z,96
2018-06-20T05:07:39.036Z,97
2018-06-20T05:08:39.091Z,100
2018-06-20T05:09:39.002Z,101
2018-06-20T05:10:39.090Z,103
2018-06-20T05:11:39.093Z,103
2018-06-20T05:12:39.048Z,104
2018-06-20T05:13:39.121Z,104
2018-06-20T05:14:39.184Z,106
2018-06-20T05:15:39.173Z,105
2018-06-20T05:16:39.089Z,111
2018-06-20T05:17:39.121Z,110
2018-06-20T05:18:39.203Z,113
2018-06-20T05:19:39.108Z,115
2018-06-20T05:20:39.149Z,116
2018-06-20T05:21:39.076Z,116
2018-06-20T05:22:39.305Z,116
2018-06-20T05:23:39.129Z,115
2018-06-20T05:24:39.181Z,116
2018-06-20T05:25:39.191Z,117
2018-06-20T05:26:39.078Z,118
2018-06-20T05:27:39.154Z,119
2018-06-20T05:28:39.124Z,117
2018-06-20T05:29:39.124Z,120
2018-06-20T05:30:39.189Z,121
2018-06-20T05:31:39.078Z,122
2018-06-20T05:32:39.096Z,122
2018-06-20T05:33:39.165Z,123
2018-06-20T05:34:39.095Z,123
2018-06-20T05:35:39.161Z,121
2018-06-20T05:36:39.117Z,121
2018-06-20T05:37:39.167Z,123
2018-06-20T05:38:39.120Z,124
2018-06-20T05:39:39.102Z,125
2018-06-20T05:40:39.174Z,122
2018-06-20T05:41:39.105Z,105
2018-06-20T05:42:39.086Z,109
2018-06-20T05:43:39.165Z,126
2018-06-20T05:44:39.087Z,127
2018-06-20T05:45:39.112Z,128
2018-06-20T05:46:39.075Z,129
2018-06-20T05:47:39.193Z,110
2018-06-20T05:48:39.208Z,130
2018-06-20T05:49:39.193Z,130
2018-06-20T05:50:39.170Z,130
2018-06-20T05:51:39.091Z,131
2018-06-20T05:52:39.147Z,132
2018-06-20T05:53:39.152Z,120
2018-06-20T05:54:39.118Z,132
2018-06-20T05:55:39.148Z,132
2018-06-20T05:56:39.193Z,134
2018-06-20T05:57:39.216Z,135
2018-06-20T05:58:39.157Z,136
2018-06-20T05:59:39.171Z,100
2018-06-20T06:00:39.218Z,134
2018-06-20T06:01:39.136Z,133
2018-06-20T06:02:39.184Z,134
2018-06-20T06:03:39.187Z,136
2018-06-20T06:04:39.212Z,112
2018-06-20T06:05:39.142Z,137
2018-06-20T06:06:39.228Z,144
2018-06-20T06:07:39.184Z,145
2018-06-20T06:08:39.090Z,146
2018-06-20T06:09:39.145Z,147
2018-06-20T06:10:39.163Z,128
2018-06-20T06:11:39.152Z,135
2018-06-20T06:12:39.104Z,152
2018-06-20T06:13:39.144Z,153
2018-06-20T06:14:39.110Z,154
2018-06-20T06:15:39.062Z,154
2018-06-20T06:16:39.174Z,136
2018-06-20T06:17:39.124Z,137
2018-06-20T06:18:39.093Z,154
2018-06-20T06:19:39.108Z,153
2018-06-20T06:20:39.148Z,155
2018-06-20T06:21:39.175Z,155
2018-06-20T06:22:39.110Z,153
2018-06-20T06:23:39.179Z,154
2018-06-20T06:24:39.141Z,133
2018-06-20T06:25:39.100Z,153
2018-06-20T06:26:39.247Z,155
2018-06-20T06:27:39.116Z,156
2018-06-20T06:28:39.148Z,188
2018-06-20T06:29:39.185Z,189
2018-06-20T06:30:39.160Z,194
2018-06-20T06:31:39.226Z,197
2018-06-20T06:32:39.122Z,202
2018-06-20T06:33:39.198Z,205
2018-06-20T06:34:39.105Z,208
2018-06-20T06:35:39.074Z,228
2018-06-20T06:36:39.105Z,242
2018-06-20T06:37:39.185Z,275
2018-06-20T06:38:39.144Z,281
2018-06-20T06:39:39.109Z,284
2018-06-20T06:40:39.126Z,286
2018-06-20T06:41:39.218Z,284
2018-06-20T06:42:39.205Z,290
2018-06-20T06:43:39.169Z,295
2018-06-20T06:44:39.237Z,299
2018-06-20T06:45:39.205Z,338
2018-06-20T06:46:39.184Z,334
2018-06-20T06:47:39.210Z,338
2018-06-20T06:48:39.173Z,339
2018-06-20T06:49:39.284Z,347
2018-06-20T06:50:39.132Z,348
2018-06-20T06:51:39.114Z,346
2018-06-20T06:52:39.131Z,343
2018-06-20T06:53:39.158Z,386
2018-06-20T06:54:39.208Z,392
2018-06-20T06:55:39.205Z,432
2018-06-20T06:56:39.126Z,437
2018-06-20T06:57:39.147Z,438
2018-06-20T06:58:39.097Z,444
2018-06-20T06:59:39.172Z,452
2018-06-20T07:00:39.207Z,471
2018-06-20T07:01:39.092Z,519
2018-06-20T07:02:39.124Z,520
2018-06-20T07:03:39.138Z,534
2018-06-20T07:04:39.208Z,535
2018-06-20T07:05:39.215Z,539
2018-06-20T07:06:39.127Z,551
2018-06-20T07:07:39.218Z,562
2018-06-20T07:08:39.221Z,596
2018-06-20T07:09:39.214Z,616
2018-06-20T07:10:39.212Z,494
2018-06-20T07:11:39.166Z,549
2018-06-20T07:14:39.163Z,535
2018-06-20T07:15:39.151Z,381
2018-06-20T07:16:39.243Z,347
2018-06-20T07:17:39.181Z,292
2018-06-20T07:18:39.257Z,290
2018-06-20T07:19:39.259Z,275
2018-06-20T07:20:39.150Z,285
2018-06-20T07:21:39.169Z,291
2018-06-20T07:22:39.262Z,282
2018-06-20T07:23:39.192Z,256
2018-06-20T07:24:39.375Z,318
2018-06-20T07:25:39.142Z,500
2018-06-20T07:26:39.260Z,737
2018-06-20T07:27:39.276Z,789
2018-06-20T07:28:39.201Z,294
2018-06-20T07:29:39.257Z,255
2018-06-20T07:30:39.284Z,242
2018-06-20T07:31:39.155Z,224
2018-06-20T07:32:39.285Z,204
2018-06-20T07:33:39.277Z,193
2018-06-20T07:34:39.142Z,180
2018-06-20T07:35:39.424Z,168
2018-06-20T07:36:39.266Z,160
2018-06-20T07:37:39.208Z,154
2018-06-20T07:38:39.264Z,155
2018-06-20T07:39:39.218Z,161
2018-06-20T07:40:39.185Z,168
2018-06-20T07:41:39.164Z,180
2018-06-20T07:42:39.274Z,195
2018-06-20T07:43:39.171Z,226
2018-06-20T07:44:39.184Z,218
2018-06-20T07:45:39.226Z,233
2018-06-20T07:46:39.251Z,266
2018-06-20T07:47:39.147Z,305
2018-06-20T07:48:39.152Z,411
2018-06-20T07:49:39.221Z,404
2018-06-20T07:50:39.291Z,389
2018-06-20T07:51:39.209Z,384
2018-06-20T07:52:39.186Z,379
2018-06-20T07:53:39.188Z,377
2018-06-20T07:54:39.183Z,380
2018-06-20T07:55:39.255Z,383
2018-06-20T07:56:39.254Z,388
2018-06-20T07:57:39.324Z,389
2018-06-20T07:58:39.287Z,418
2018-06-20T07:59:39.192Z,403
2018-06-20T08:00:39.391Z,408
2018-06-20T08:01:39.261Z,419
2018-06-20T08:02:39.191Z,435
2018-06-20T08:03:39.291Z,460
2018-06-20T08:04:39.191Z,467
2018-06-20T08:05:39.259Z,461
2018-06-20T08:06:39.196Z,447
2018-06-20T08:07:39.259Z,434
2018-06-20T08:08:39.280Z,470
2018-06-20T08:09:39.198Z,409
2018-06-20T08:10:39.197Z,374
2018-06-20T08:11:39.265Z,356
2018-06-20T08:12:39.191Z,343
2018-06-20T08:13:39.292Z,327
2018-06-20T08:14:39.304Z,318
2018-06-20T08:15:39.269Z,318
2018-06-20T08:16:39.265Z,329
2018-06-20T08:17:39.295Z,347
2018-06-20T08:18:39.265Z,371
2018-06-20T08:19:39.206Z,398
2018-06-20T08:20:39.193Z,434
2018-06-20T08:21:39.237Z,468
2018-06-20T08:22:39.342Z,474
2018-06-20T08:23:39.287Z,473
2018-06-20T08:24:39.216Z,471
2018-06-20T08:25:39.272Z,562
2018-06-20T08:26:39.271Z,374
2018-06-20T08:27:39.275Z,339
2018-06-20T08:28:39.251Z,318
2018-06-20T08:29:39.318Z,306
2018-06-20T08:30:39.275Z,300
2018-06-20T08:31:39.197Z,290
2018-06-20T08:32:39.280Z,280
2018-06-20T08:33:39.208Z,265
2018-06-20T08:34:39.209Z,244
2018-06-20T08:35:39.278Z,228
2018-06-20T08:36:39.209Z,217
2018-06-20T08:37:39.212Z,209
2018-06-20T08:38:39.214Z,208
2018-06-20T08:39:39.216Z,200
2018-06-20T08:40:39.283Z,194
2018-06-20T08:41:39.288Z,194
2018-06-20T08:42:39.275Z,195
2018-06-20T08:43:39.239Z,214
2018-06-20T08:44:39.203Z,236
2018-06-20T08:45:39.189Z,262
2018-06-20T08:46:39.158Z,284
2018-06-20T08:47:39.239Z,304
2018-06-20T08:48:39.278Z,318
2018-06-20T08:49:39.195Z,330
2018-06-20T08:50:39.257Z,340
2018-06-20T08:51:39.249Z,341
2018-06-20T08:52:39.262Z,334
2018-06-20T08:53:39.255Z,321
2018-06-20T08:54:39.320Z,310
2018-06-20T08:55:39.276Z,300
2018-06-20T08:56:39.365Z,290
2018-06-20T08:57:39.248Z,276
2018-06-20T08:58:39.213Z,261
2018-06-20T08:59:39.272Z,243
2018-06-20T09:00:39.296Z,226
2018-06-20T09:01:39.271Z,214
2018-06-20T09:02:39.304Z,201
2018-06-20T09:03:39.294Z,188
2018-06-20T09:04:39.232Z,177
2018-06-20T09:05:39.298Z,168
2018-06-20T09:06:39.303Z,159
2018-06-20T09:07:39.306Z,153
2018-06-20T09:08:39.283Z,152
2018-06-20T09:09:39.298Z,146
2018-06-20T09:10:39.272Z,146
2018-06-20T09:11:39.237Z,147
2018-06-20T09:12:39.236Z,150
2018-06-20T09:13:39.338Z,148
2018-06-20T09:14:39.204Z,143
2018-06-20T09:15:39.266Z,140
2018-06-20T09:16:39.318Z,139
2018-06-20T09:17:39.263Z,141
2018-06-20T09:18:39.280Z,145
2018-06-20T09:19:39.307Z,143
2018-06-20T09:20:39.210Z,145
2018-06-20T09:21:39.308Z,150
2018-06-20T09:22:39.354Z,160
2018-06-20T09:23:39.240Z,170
2018-06-20T09:24:39.200Z,181
2018-06-20T09:25:39.246Z,187
2018-06-20T09:26:39.261Z,191
2018-06-20T09:27:39.239Z,194
2018-06-20T09:28:39.175Z,202
2018-06-20T09:29:39.248Z,215
2018-06-20T09:30:39.274Z,227
2018-06-20T09:31:39.248Z,237
2018-06-20T09:32:39.297Z,241
2018-06-20T09:33:39.202Z,249
2018-06-20T09:34:39.245Z,259
2018-06-20T09:35:39.191Z,274
2018-06-20T09:36:39.196Z,287
2018-06-20T09:37:39.223Z,293
2018-06-20T09:38:39.268Z,292
2018-06-20T09:39:39.164Z,292
2018-06-20T09:40:39.140Z,283
2018-06-20T09:41:39.185Z,269
2018-06-20T09:42:39.179Z,255
2018-06-20T09:43:39.357Z,240
2018-06-20T09:44:39.302Z,234
2018-06-20T09:45:39.287Z,238
2018-06-20T09:46:39.304Z,252
2018-06-20T09:47:39.345Z,283
2018-06-20T09:48:39.282Z,324
2018-06-20T09:49:39.328Z,370
2018-06-20T09:50:39.298Z,424
2018-06-20T09:51:39.293Z,477
2018-06-20T09:52:39.290Z,534
2018-06-20T09:53:39.333Z,743
2018-06-20T09:54:39.283Z,607
2018-06-20T09:56:39.267Z,662
2018-06-20T09:57:39.295Z,588
2018-06-20T09:58:39.337Z,464
2018-06-20T09:59:39.301Z,420
2018-06-20T10:00:39.407Z,394
2018-06-20T10:01:39.339Z,393
2018-06-20T10:02:39.267Z,394
2018-06-20T10:03:39.358Z,399
2018-06-20T10:04:39.246Z,403
2018-06-20T10:05:39.303Z,416
2018-06-20T10:06:39.398Z,430
2018-06-20T10:07:39.366Z,432
2018-06-20T10:08:39.295Z,410
2018-06-20T10:09:39.244Z,393
2018-06-20T10:10:39.317Z,377
2018-06-20T10:11:39.298Z,370
2018-06-20T10:12:39.364Z,371
2018-06-20T10:13:39.381Z,437
2018-06-20T10:14:39.376Z,376
2018-06-20T10:15:39.306Z,376
2018-06-20T10:16:39.379Z,384
2018-06-20T10:17:39.246Z,386
2018-06-20T10:18:39.306Z,388
2018-06-20T10:19:39.249Z,396
2018-06-20T10:20:39.260Z,411
2018-06-20T10:21:39.285Z,452
2018-06-20T10:22:39.247Z,511
2018-06-20T10:23:39.377Z,598
2018-06-20T10:24:39.352Z,889
2018-06-20T10:25:39.330Z,811
2018-06-20T10:26:39.330Z,816
2018-06-20T10:27:39.330Z,1042
2018-06-20T10:28:39.598Z,642
2018-06-20T10:29:39.378Z,597
2018-06-20T10:30:39.380Z,1098
2018-06-20T10:31:39.333Z,567
2018-06-20T10:32:39.357Z,497
2018-06-20T10:33:39.312Z,530
2018-06-20T10:34:39.381Z,687
2018-06-20T10:35:39.385Z,597
2018-06-20T10:36:39.256Z,1425
2018-06-20T10:37:39.394Z,1436
2018-06-20T10:38:39.316Z,708
2018-06-20T10:39:39.339Z,661
2018-06-20T10:40:39.391Z,583
2018-06-20T10:41:39.361Z,577
2018-06-20T10:42:39.302Z,551
2018-06-20T10:43:39.297Z,541
2018-06-20T10:44:39.300Z,545
2018-06-20T10:45:39.298Z,549
2018-06-20T10:46:39.301Z,566
2018-06-20T10:47:39.376Z,594
2018-06-20T10:48:39.297Z,665
2018-06-20T10:49:39.378Z,680
2018-06-20T10:50:39.299Z,711
2018-06-20T10:51:39.391Z,761
2018-06-20T10:52:39.372Z,740
2018-06-20T10:53:39.243Z,1479
2018-06-20T10:54:39.369Z,743
2018-06-20T10:55:39.241Z,1143
2018-06-20T10:56:39.276Z,824
2018-06-20T10:57:39.307Z,870
2018-06-20T10:58:39.368Z,698
2018-06-20T10:59:39.241Z,689
2018-06-20T11:00:39.253Z,785
2018-06-20T11:01:39.285Z,894
2018-06-20T11:02:39.329Z,732
2018-06-20T11:03:39.341Z,708
2018-06-20T11:04:39.379Z,834
2018-06-20T11:05:39.340Z,626
2018-06-20T11:06:39.283Z,604
2018-06-20T11:07:39.347Z,671
2018-06-20T11:08:39.378Z,812
2018-06-20T11:09:39.447Z,670
2018-06-20T11:10:39.414Z,858
2018-06-20T11:11:39.438Z,555
2018-06-20T11:12:39.378Z,495
2018-06-20T11:13:39.385Z,955
2018-06-20T11:14:39.383Z,1386
2018-06-20T11:15:39.415Z,1253
2018-06-20T11:16:39.386Z,673
2018-06-20T11:17:39.323Z,521
2018-06-20T11:18:39.387Z,430
2018-06-20T11:19:39.327Z,427
2018-06-20T11:20:39.319Z,439
2018-06-20T11:21:39.364Z,446
2018-06-20T11:22:39.386Z,459
2018-06-20T11:23:39.324Z,475
2018-06-20T11:24:39.391Z,459
2018-06-20T11:25:39.326Z,465
2018-06-20T11:26:39.389Z,477
2018-06-20T11:27:39.332Z,508
2018-06-20T11:28:39.331Z,602
2018-06-20T11:29:39.390Z,1125
2018-06-20T11:30:39.391Z,1062
2018-06-20T11:31:39.332Z,1376
2018-06-20T11:32:39.403Z,466
2018-06-20T11:33:39.402Z,831
2018-06-20T11:34:39.299Z,1015
2018-06-20T11:35:39.365Z,1313
2018-06-20T11:36:39.426Z,979
2018-06-20T11:37:39.431Z,746
2018-06-20T11:38:39.324Z,1259
2018-06-20T11:39:39.309Z,1230
2018-06-20T11:40:39.322Z,1208
2018-06-20T11:41:39.398Z,1218
2018-06-20T11:42:39.383Z,1194
2018-06-20T11:43:39.307Z,1194
2018-06-20T11:44:39.302Z,1209
2018-06-20T11:45:39.398Z,1179
2018-06-20T11:46:39.342Z,1196
2018-06-20T11:47:39.310Z,1230
2018-06-20T11:48:39.299Z,1264
2018-06-20T11:49:39.387Z,1308
2018-06-20T11:50:39.438Z,1341
2018-06-20T11:51:39.319Z,542
2018-06-20T11:52:39.441Z,771
2018-06-20T11:53:39.344Z,542
2018-06-20T11:54:39.409Z,535
2018-06-20T11:55:39.410Z,1377
2018-06-20T11:56:39.346Z,624
2018-06-20T11:57:39.369Z,481
2018-06-20T11:58:39.413Z,1318
2018-06-20T11:59:39.313Z,1227
2018-06-20T12:00:39.414Z,1204
2018-06-20T12:01:39.414Z,1191
2018-06-20T12:02:39.347Z,1183
2018-06-20T12:03:39.389Z,1173
2018-06-20T12:04:39.389Z,416
2018-06-20T12:05:39.393Z,1015
2018-06-20T12:06:39.384Z,659
2018-06-20T12:07:39.442Z,515
2018-06-20T12:08:39.475Z,1135
2018-06-20T12:09:39.323Z,1255
2018-06-20T12:10:39.401Z,1207
2018-06-20T12:11:39.454Z,1174
2018-06-20T12:12:39.491Z,1185
2018-06-20T12:13:39.517Z,1151
2018-06-20T12:14:39.403Z,1136
2018-06-20T12:15:39.386Z,817
2018-06-20T12:16:39.461Z,1097
2018-06-20T12:17:39.349Z,1111
2018-06-20T12:18:39.402Z,1110
2018-06-20T12:19:39.328Z,1115
2018-06-20T12:20:39.403Z,1092
2018-06-20T12:21:39.401Z,1084
2018-06-20T12:22:39.348Z,1081
2018-06-20T12:23:39.428Z,1075
2018-06-20T12:24:39.412Z,1068
2018-06-20T12:25:39.405Z,1062
2018-06-20T12:26:39.403Z,1062
2018-06-20T12:27:39.407Z,1067
2018-06-20T12:28:39.410Z,1041
2018-06-20T12:29:39.401Z,1052
2018-06-20T12:30:39.342Z,1048
2018-06-20T12:31:39.392Z,1035
2018-06-20T12:32:39.410Z,1035
2018-06-20T12:33:39.342Z,923
2018-06-20T12:34:39.358Z,1027
2018-06-20T12:35:39.424Z,1029
2018-06-20T12:36:39.387Z,1035
2018-06-20T12:37:39.378Z,1046
2018-06-20T12:38:39.434Z,1041
2018-06-20T12:39:39.349Z,1041
2018-06-20T12:40:39.434Z,1041
2018-06-20T12:41:39.430Z,1030
2018-06-20T12:42:39.453Z,1034
2018-06-20T12:43:39.423Z,1037
2018-06-20T12:44:39.472Z,1036
2018-06-20T12:45:39.480Z,1032
2018-06-20T12:46:39.400Z,997
2018-06-20T12:47:39.419Z,1011
2018-06-20T12:48:39.349Z,1007
2018-06-20T12:49:39.471Z,1023
2018-06-20T12:50:39.421Z,1041
2018-06-20T12:51:39.447Z,1037
2018-06-20T12:52:39.539Z,1032
2018-06-20T12:53:39.423Z,1017
2018-06-20T12:54:39.356Z,506
2018-06-20T12:55:39.490Z,224
2018-06-20T12:56:39.482Z,1051
2018-06-20T12:57:39.451Z,1051
2018-06-20T12:58:39.422Z,1030
2018-06-20T12:59:39.494Z,1024
2018-06-20T13:00:39.431Z,1016
2018-06-20T13:01:39.450Z,1012
2018-06-20T13:02:39.426Z,999
2018-06-20T13:03:39.528Z,1020
2018-06-20T13:04:39.430Z,599
2018-06-20T13:05:39.418Z,722
2018-06-20T13:06:39.362Z,1017
2018-06-20T13:07:39.418Z,1024
2018-06-20T13:08:39.435Z,1013
2018-06-20T13:09:39.455Z,992
2018-06-20T13:10:39.442Z,1009
2018-06-20T13:11:39.430Z,896
2018-06-20T13:12:39.416Z,927
2018-06-20T13:13:39.397Z,989
2018-06-20T13:14:39.466Z,991
2018-06-20T13:15:39.397Z,980
2018-06-20T13:16:39.356Z,914
2018-06-20T13:17:39.403Z,978
2018-06-20T13:18:39.364Z,968
2018-06-20T13:19:39.473Z,974
2018-06-20T13:20:39.472Z,982
2018-06-20T13:21:39.407Z,987
2018-06-20T13:22:39.407Z,997
2018-06-20T13:23:39.402Z,992
2018-06-20T13:24:39.473Z,990
2018-06-20T13:25:39.407Z,990
2018-06-20T13:26:39.471Z,965
2018-06-20T13:27:39.403Z,966
2018-06-20T13:28:39.471Z,970
2018-06-20T13:29:39.471Z,965
2018-06-20T13:30:39.475Z,954
2018-06-20T13:31:39.474Z,939
2018-06-20T13:32:39.436Z,962
2018-06-20T13:33:39.414Z,966
2018-06-20T13:34:39.477Z,982
2018-06-20T13:35:39.411Z,961
2018-06-20T13:36:39.411Z,952
2018-06-20T13:37:39.441Z,953
2018-06-20T13:38:39.483Z,951
2018-06-20T13:39:39.459Z,950
2018-06-20T13:40:39.415Z,957
2018-06-20T13:41:39.479Z,955
2018-06-20T13:42:39.418Z,951
2018-06-20T13:43:39.391Z,948
2018-06-20T13:44:39.470Z,931
2018-06-20T13:45:39.386Z,927
2018-06-20T13:46:39.471Z,925
2018-06-20T13:47:39.474Z,933
2018-06-20T13:48:39.480Z,937
2018-06-20T13:49:39.352Z,934
2018-06-20T13:50:39.445Z,936
2018-06-20T13:51:39.441Z,937
2018-06-20T13:52:39.480Z,947
2018-06-20T13:53:39.485Z,938
2018-06-20T13:54:39.465Z,946
2018-06-20T13:55:39.446Z,890
2018-06-20T13:56:39.516Z,930
2018-06-20T13:57:39.491Z,921
2018-06-20T13:58:39.503Z,920
2018-06-20T13:59:39.511Z,923
2018-06-20T14:00:39.511Z,922
2018-06-20T14:01:39.458Z,890
2018-06-20T14:02:39.530Z,885
2018-06-20T14:03:39.438Z,898
2018-06-20T14:04:39.454Z,885